Time;durP1;ratioP1;P1;durP2;ratioP2;P2;SDS_P1;SDS_P2;PMS_P1;PMS_P2;Temp;Humidity;BMP_temperature;BMP_pressure;BME280_temperature;BME280_humidity;BME280_pressure;Samples;Min_cycle;Max_cycle;Signal;HPM_P1;HPM_P2
2022/06/30 00:00:30;;;;;;;2.22;0.85;;;23.50;51.90;;;;;;2420739;53;20921;-73
2022/06/30 00:02:57;;;;;;;2.08;1.05;;;23.50;52.00;;;;;;2318587;54;21016;-74
2022/06/30 00:05:29;;;;;;;4.30;1.30;;;23.40;52.10;;;;;;2309920;54;21944;-73
2022/06/30 00:07:56;;;;;;;1.90;0.90;;;23.40;52.20;;;;;;2323681;53;20914;-73
2022/06/30 00:10:22;;;;;;;2.33;1.00;;;23.30;52.10;;;;;;2313165;54;21002;-74
2022/06/30 00:12:48;;;;;;;2.80;1.10;;;23.30;52.20;;;;;;2311565;54;21009;-75
2022/06/30 00:15:15;;;;;;;3.22;1.08;;;23.20;52.20;;;;;;2496634;53;20981;-73
2022/06/30 00:17:41;;;;;;;2.30;1.00;;;23.20;52.40;;;;;;2309698;54;21826;-74
2022/06/30 00:20:08;;;;;;;2.40;1.00;;;23.20;52.50;;;;;;2314793;54;21076;-73
2022/06/30 00:22:34;;;;;;;2.22;0.95;;;23.10;52.50;;;;;;2314961;54;20988;-75
2022/06/30 00:25:01;;;;;;;2.53;1.15;;;23.10;52.50;;;;;;2406282;54;20978;-73
2022/06/30 00:27:42;;;;;;;2.00;1.10;;;23.10;52.60;;;;;;2314329;54;21062;-73
2022/06/30 00:30:09;;;;;;;3.65;1.45;;;23.10;53.00;;;;;;2308946;54;21427;-74
2022/06/30 00:32:35;;;;;;;3.05;1.60;;;23.00;52.70;;;;;;2313292;54;21134;-74
2022/06/30 00:35:01;;;;;;;2.37;1.27;;;23.00;52.80;;;;;;2308491;54;20949;-73
2022/06/30 00:37:28;;;;;;;2.72;1.20;;;23.00;53.00;;;;;;2314213;54;21032;-73
2022/06/30 00:39:54;;;;;;;2.75;1.00;;;22.90;52.90;;;;;;2312529;54;20994;-73
2022/06/30 00:42:22;;;;;;;1.83;1.00;;;22.90;52.90;;;;;;2322183;54;21187;-74
2022/06/30 00:44:48;;;;;;;2.70;1.10;;;22.90;53.10;;;;;;2325257;53;20909;-74
2022/06/30 00:47:14;;;;;;;2.40;1.30;;;22.90;53.10;;;;;;2310401;54;20937;-74
2022/06/30 00:49:40;;;;;;;2.10;0.95;;;22.80;53.10;;;;;;2316662;54;20954;-73
2022/06/30 00:52:09;;;;;;;2.22;1.10;;;22.70;53.10;;;;;;2311617;54;20941;-73
2022/06/30 00:54:35;;;;;;;2.62;1.00;;;22.70;53.20;;;;;;2316238;54;21008;-75
2022/06/30 00:57:02;;;;;;;2.00;0.93;;;22.70;53.30;;;;;;2315753;54;20967;-73
2022/06/30 00:59:29;;;;;;;1.90;0.90;;;22.70;53.30;;;;;;2313627;54;21438;-74
2022/06/30 01:01:55;;;;;;;3.75;1.37;;;22.60;53.30;;;;;;2313696;54;21422;-75
2022/06/30 01:04:58;;;;;;;2.42;1.30;;;22.60;53.50;;;;;;2316096;57;21870;-74
2022/06/30 01:07:25;;;;;;;2.05;0.98;;;22.60;53.90;;;;;;2311148;54;21047;-74
2022/06/30 01:12:44;;;;;;;1.85;0.93;;;22.60;53.50;;;;;;2315644;54;21098;-73
2022/06/30 01:15:13;;;;;;;2.37;1.00;;;22.50;53.50;;;;;;2311813;54;20929;-73
2022/06/30 01:17:57;;;;;;;2.15;0.95;;;22.50;53.70;;;;;;2423332;53;21579;-73
2022/06/30 01:20:54;;;;;;;2.17;1.00;;;22.50;53.90;;;;;;2300515;54;20964;-74
2022/06/30 01:23:20;;;;;;;2.47;0.90;;;22.40;53.90;;;;;;2294945;55;20953;-75
2022/06/30 01:25:46;;;;;;;2.40;1.20;;;22.40;53.80;;;;;;2311274;54;20985;-73
2022/06/30 01:28:12;;;;;;;2.00;1.00;;;22.40;53.80;;;;;;2552017;53;21068;-74
2022/06/30 01:30:40;;;;;;;2.53;1.08;;;22.30;53.80;;;;;;2310209;54;20929;-73
2022/06/30 01:33:06;;;;;;;2.17;1.00;;;22.30;54.00;;;;;;2311551;54;21012;-75
2022/06/30 01:35:33;;;;;;;1.87;0.90;;;22.30;53.90;;;;;;2311401;54;20993;-74
2022/06/30 01:37:59;;;;;;;2.30;1.10;;;22.30;54.00;;;;;;2441234;53;20921;-74
2022/06/30 01:40:27;;;;;;;2.10;1.00;;;22.30;54.00;;;;;;2311216;54;20921;-73
2022/06/30 01:42:53;;;;;;;2.80;1.02;;;22.20;54.00;;;;;;2314481;54;21430;-73
2022/06/30 01:45:20;;;;;;;2.10;1.15;;;22.20;54.10;;;;;;2311422;54;20909;-73
2022/06/30 01:47:46;;;;;;;2.78;1.10;;;22.20;54.20;;;;;;2311300;54;20881;-73
2022/06/30 01:50:20;;;;;;;2.58;1.08;;;22.10;54.20;;;;;;2311706;54;20961;-73
2022/06/30 01:52:47;;;;;;;2.25;1.15;;;22.10;54.40;;;;;;2317389;54;21457;-73
2022/06/30 01:55:15;;;;;;;2.03;1.02;;;22.10;54.20;;;;;;2312702;54;21608;-73
2022/06/30 01:57:41;;;;;;;2.50;1.10;;;22.10;54.30;;;;;;2316748;54;20999;-73
2022/06/30 02:00:13;;;;;;;3.42;1.30;;;22.10;54.40;;;;;;2312346;54;21407;-74
2022/06/30 02:02:40;;;;;;;2.12;1.15;;;22.00;54.70;;;;;;2505573;53;20977;-73
2022/06/30 02:05:06;;;;;;;3.08;1.40;;;22.00;54.70;;;;;;2314748;54;20937;-73
2022/06/30 02:07:36;;;;;;;2.40;1.23;;;22.00;54.70;;;;;;2341029;53;20981;-74
2022/06/30 02:13:31;;;;;;;2.20;1.12;;;22.00;55.00;;;;;;2315870;54;20997;-73
2022/06/30 02:15:57;;;;;;;2.22;1.25;;;21.90;54.60;;;;;;2314421;54;21005;-73
2022/06/30 02:18:24;;;;;;;2.92;1.10;;;21.90;54.70;;;;;;2311816;54;21028;-73
2022/06/30 02:20:50;;;;;;;2.58;1.50;;;21.90;54.80;;;;;;2310534;54;20973;-73
2022/06/30 02:23:18;;;;;;;2.42;1.20;;;21.90;54.80;;;;;;2333437;53;20945;-74
2022/06/30 02:25:44;;;;;;;2.58;1.40;;;21.90;54.80;;;;;;2311950;54;20945;-74
2022/06/30 02:28:11;;;;;;;2.55;1.35;;;21.90;54.90;;;;;;2444587;53;20937;-73
2022/06/30 02:34:28;;;;;;;2.25;1.15;;;21.80;55.20;;;;;;2346144;53;21660;-73
2022/06/30 02:36:55;;;;;;;2.60;1.12;;;21.80;55.10;;;;;;2312552;54;20937;-73
2022/06/30 02:39:23;;;;;;;2.30;1.20;;;21.80;54.90;;;;;;2325085;54;22068;-74
2022/06/30 02:41:49;;;;;;;2.03;1.23;;;21.70;55.10;;;;;;2308436;54;20941;-73
2022/06/30 02:44:19;;;;;;;2.33;1.25;;;21.70;55.20;;;;;;2318601;54;21475;-73
2022/06/30 02:46:48;;;;;;;3.50;1.58;;;21.70;55.30;;;;;;2312823;54;20897;-72
2022/06/30 02:49:15;;;;;;;2.60;0.95;;;21.60;55.10;;;;;;2318137;54;20963;-73
2022/06/30 02:51:41;;;;;;;3.15;1.30;;;21.60;55.20;;;;;;2317375;54;21003;-73
2022/06/30 02:54:08;;;;;;;2.67;1.35;;;21.60;55.20;;;;;;2548520;53;20957;-73
2022/06/30 02:56:52;;;;;;;2.40;1.30;;;21.60;55.30;;;;;;2318709;54;21048;-74
2022/06/30 02:59:21;;;;;;;2.70;1.60;;;21.60;55.50;;;;;;2318175;54;20921;-73
2022/06/30 03:01:47;;;;;;;2.35;1.33;;;21.50;55.30;;;;;;2311851;53;21748;-73
2022/06/30 03:04:13;;;;;;;2.60;1.50;;;21.50;55.30;;;;;;2311362;54;20946;-73
2022/06/30 03:06:40;;;;;;;3.37;1.50;;;21.50;55.40;;;;;;2523552;53;20991;-73
2022/06/30 03:09:06;;;;;;;3.05;1.42;;;21.50;55.40;;;;;;2320508;54;20990;-72
2022/06/30 03:12:00;;;;;;;2.33;1.42;;;21.50;55.50;;;;;;2313351;54;21008;-73
2022/06/30 03:14:29;;;;;;;3.03;1.37;;;21.50;55.80;;;;;;2315564;54;21043;-73
2022/06/30 03:16:57;;;;;;;2.97;1.30;;;21.50;55.60;;;;;;2312747;54;20972;-73
2022/06/30 03:19:23;;;;;;;3.05;1.40;;;21.50;55.60;;;;;;2330825;54;21725;-72
2022/06/30 03:21:49;;;;;;;2.78;1.40;;;21.40;55.50;;;;;;2394150;53;20941;-73
2022/06/30 03:24:16;;;;;;;3.12;1.30;;;21.40;55.60;;;;;;2311203;54;20925;-74
2022/06/30 03:26:42;;;;;;;2.37;1.33;;;21.40;55.60;;;;;;2355395;53;20933;-73
2022/06/30 03:29:36;;;;;;;2.65;1.30;;;21.40;55.60;;;;;;2311515;54;21016;-73
2022/06/30 03:32:14;;;;;;;2.00;1.00;;;21.30;56.00;;;;;;2324107;54;21558;-72
2022/06/30 03:34:40;;;;;;;2.78;1.30;;;21.30;55.70;;;;;;2302303;54;21091;-73
2022/06/30 03:37:10;;;;;;;2.50;1.50;;;21.30;55.60;;;;;;2315442;54;21014;-73
2022/06/30 03:39:36;;;;;;;2.37;1.25;;;21.30;55.70;;;;;;2317374;54;21434;-73
2022/06/30 03:42:02;;;;;;;3.40;1.50;;;21.20;55.90;;;;;;2311965;54;20961;-72
2022/06/30 03:44:29;;;;;;;3.87;1.62;;;21.20;55.90;;;;;;2317854;54;21814;-75
2022/06/30 03:46:57;;;;;;;4.87;1.40;;;21.20;56.10;;;;;;2551068;53;21756;-73
2022/06/30 03:49:23;;;;;;;3.70;1.50;;;21.20;56.20;;;;;;2316912;54;20995;-73
2022/06/30 03:51:52;;;;;;;2.53;1.23;;;21.20;56.20;;;;;;2311342;54;20946;-74
2022/06/30 03:54:19;;;;;;;2.50;1.40;;;21.20;56.20;;;;;;2326100;54;21939;-75
2022/06/30 03:56:51;;;;;;;2.87;1.50;;;21.10;56.10;;;;;;2310250;54;20981;-73
2022/06/30 03:59:19;;;;;;;3.00;1.20;;;21.10;56.20;;;;;;2312004;54;20981;-72
2022/06/30 04:04:36;;;;;;;2.25;1.27;;;21.10;56.20;;;;;;2311468;54;20941;-74
2022/06/30 04:07:03;;;;;;;2.47;1.20;;;21.10;56.00;;;;;;2322202;54;20929;-73
2022/06/30 04:09:29;;;;;;;2.60;1.45;;;21.00;56.00;;;;;;2316065;54;20929;-74
2022/06/30 04:11:56;;;;;;;3.22;1.60;;;21.00;56.20;;;;;;2314095;54;21904;-72
2022/06/30 04:14:22;;;;;;;3.12;1.50;;;21.00;56.30;;;;;;2468410;53;21560;-73
2022/06/30 04:17:00;;;;;;;3.58;1.35;;;21.00;56.40;;;;;;2315856;54;20969;-73
2022/06/30 04:19:27;;;;;;;2.35;1.30;;;21.00;56.50;;;;;;2286069;55;20921;-73
2022/06/30 04:21:53;;;;;;;2.50;1.30;;;21.00;56.40;;;;;;2315329;54;20992;-73
2022/06/30 04:24:19;;;;;;;2.20;1.30;;;20.90;56.30;;;;;;2312839;54;21029;-73
2022/06/30 04:26:46;;;;;;;4.50;1.23;;;20.90;56.40;;;;;;2314112;54;21009;-73
2022/06/30 04:29:12;;;;;;;1.98;1.10;;;20.90;56.40;;;;;;2311992;54;20929;-74
2022/06/30 04:34:35;;;;;;;4.57;1.55;;;20.90;56.80;;;;;;2296047;55;21028;-73
2022/06/30 04:37:01;;;;;;;3.08;1.30;;;20.90;57.20;;;;;;2314243;54;21934;-74
2022/06/30 04:39:28;;;;;;;2.45;1.30;;;20.90;57.00;;;;;;2313341;54;20940;-73
2022/06/30 04:42:43;;;;;;;2.25;1.30;;;20.90;57.00;;;;;;2306915;54;20953;-73
2022/06/30 04:45:52;;;;;;;3.40;1.15;;;20.90;57.50;;;;;;2324037;54;21566;-73
2022/06/30 04:48:18;;;;;;;2.45;1.10;;;21.00;57.60;;;;;;2353481;53;20999;-73
2022/06/30 04:50:45;;;;;;;4.05;1.33;;;21.00;57.20;;;;;;2308363;54;21019;-73
2022/06/30 04:53:11;;;;;;;2.70;1.60;;;20.90;57.20;;;;;;2298286;55;21810;-75
2022/06/30 04:55:37;;;;;;;3.53;1.77;;;21.00;57.50;;;;;;2315843;54;20933;-75
2022/06/30 04:58:03;;;;;;;2.80;1.40;;;21.00;57.50;;;;;;2337893;53;20952;-73
2022/06/30 05:00:54;;;;;;;2.50;1.40;;;21.00;57.60;;;;;;2313153;54;20921;-73
2022/06/30 05:03:24;;;;;;;2.37;1.33;;;21.00;58.00;;;;;;2310286;54;20988;-74
2022/06/30 05:05:51;;;;;;;3.20;1.52;;;21.10;57.80;;;;;;2316934;54;20919;-74
2022/06/30 05:08:18;;;;;;;4.05;1.35;;;21.10;57.90;;;;;;2311211;54;21073;-73
2022/06/30 05:10:44;;;;;;;2.78;1.52;;;21.10;57.90;;;;;;2374017;53;21615;-73
2022/06/30 05:13:10;;;;;;;3.00;1.62;;;21.20;58.20;;;;;;2295695;54;21097;-74
2022/06/30 05:15:37;;;;;;;2.50;1.50;;;21.20;58.30;;;;;;2337289;53;21481;-75
2022/06/30 05:18:03;;;;;;;2.80;1.45;;;21.20;58.30;;;;;;2369355;53;21020;-73
2022/06/30 05:20:54;;;;;;;2.90;1.67;;;21.30;58.50;;;;;;2341166;53;20981;-74
2022/06/30 05:23:20;;;;;;;3.10;1.70;;;21.30;58.90;;;;;;2298646;55;21048;-75
2022/06/30 05:28:31;;;;;;;3.15;1.62;;;21.40;58.70;;;;;;2308016;54;21441;-74
2022/06/30 05:30:57;;;;;;;3.42;1.60;;;21.50;58.70;;;;;;2377331;53;20948;-74
2022/06/30 05:33:24;;;;;;;2.90;1.58;;;21.50;58.80;;;;;;2314336;54;21374;-75
2022/06/30 05:35:51;;;;;;;2.72;1.40;;;21.60;58.90;;;;;;2313388;54;20955;-74
2022/06/30 05:38:21;;;;;;;3.67;1.48;;;21.60;58.90;;;;;;2316305;54;20908;-73
2022/06/30 05:40:50;;;;;;;4.72;1.77;;;21.70;59.00;;;;;;2316310;54;20949;-73
2022/06/30 05:43:28;;;;;;;2.40;1.50;;;21.70;59.00;;;;;;2311191;54;21083;-75
2022/06/30 05:45:55;;;;;;;3.45;1.50;;;21.80;59.40;;;;;;2403141;53;21770;-75
2022/06/30 05:48:21;;;;;;;2.72;1.60;;;21.90;59.20;;;;;;2317494;54;21051;-74
2022/06/30 05:50:56;;;;;;;2.50;1.55;;;21.90;59.20;;;;;;2312028;54;20912;-74
2022/06/30 05:53:22;;;;;;;2.97;1.60;;;22.00;59.60;;;;;;2317887;54;20965;-75
2022/06/30 05:55:49;;;;;;;3.35;2.20;;;22.10;59.40;;;;;;2316151;54;20917;-73
2022/06/30 05:58:16;;;;;;;2.80;1.60;;;22.10;59.40;;;;;;2313211;54;21704;-74
2022/06/30 06:00:45;;;;;;;3.58;2.08;;;22.20;59.50;;;;;;2312827;54;21770;-74
2022/06/30 06:03:12;;;;;;;3.70;2.03;;;22.30;59.60;;;;;;2314628;54;21469;-73
2022/06/30 06:05:38;;;;;;;3.20;2.00;;;22.30;59.60;;;;;;2317682;54;20984;-73
2022/06/30 06:08:07;;;;;;;3.12;1.80;;;22.30;59.60;;;;;;2313732;54;20917;-74
2022/06/30 06:10:34;;;;;;;2.70;1.55;;;22.40;59.70;;;;;;2310332;54;21014;-72
2022/06/30 06:13:00;;;;;;;3.40;2.10;;;22.50;59.70;;;;;;2310964;54;20977;-73
2022/06/30 06:15:26;;;;;;;3.72;1.73;;;22.60;59.90;;;;;;2311754;54;21000;-74
2022/06/30 06:17:53;;;;;;;2.85;1.37;;;22.60;59.90;;;;;;2314774;54;20948;-75
2022/06/30 06:20:19;;;;;;;2.87;1.60;;;22.70;60.00;;;;;;2315810;54;20996;-74
2022/06/30 06:22:55;;;;;;;2.62;1.58;;;22.80;60.00;;;;;;2313176;54;20972;-75
2022/06/30 06:25:21;;;;;;;3.22;1.98;;;22.90;60.40;;;;;;2310813;54;21436;-74
2022/06/30 06:30:44;;;;;;;2.67;1.77;;;23.10;60.50;;;;;;2315517;54;20999;-74
2022/06/30 06:33:13;;;;;;;2.95;1.50;;;23.10;60.00;;;;;;2318279;54;21556;-74
2022/06/30 06:35:41;;;;;;;2.80;1.50;;;23.20;60.00;;;;;;2300431;54;21590;-74
2022/06/30 06:38:10;;;;;;;2.95;1.60;;;23.30;60.00;;;;;;2311612;54;20933;-76
2022/06/30 06:40:54;;;;;;;2.67;1.48;;;23.40;60.00;;;;;;2314724;54;20906;-74
2022/06/30 06:43:30;;;;;;;3.20;1.73;;;23.50;60.30;;;;;;2311471;54;21012;-73
2022/06/30 06:46:12;;;;;;;2.60;1.80;;;23.50;60.30;;;;;;2381667;53;20897;-74
2022/06/30 06:48:38;;;;;;;3.42;2.00;;;23.60;60.30;;;;;;2315519;54;21018;-74
2022/06/30 06:51:05;;;;;;;2.80;1.75;;;23.70;60.20;;;;;;2313234;54;20901;-73
2022/06/30 06:53:31;;;;;;;3.03;1.77;;;23.80;60.10;;;;;;2550268;53;20961;-74
2022/06/30 06:55:57;;;;;;;3.90;2.20;;;23.90;60.10;;;;;;2310583;54;20972;-74
2022/06/30 06:58:23;;;;;;;3.67;1.77;;;23.90;60.10;;;;;;2310582;54;20976;-73
2022/06/30 07:00:52;;;;;;;5.15;1.77;;;24.00;60.20;;;;;;2315407;54;21029;-74
2022/06/30 07:03:19;;;;;;;2.92;1.77;;;24.10;60.30;;;;;;2314936;54;22125;-75
2022/06/30 07:05:46;;;;;;;2.85;1.80;;;24.20;60.40;;;;;;2313049;54;21797;-74
2022/06/30 07:08:13;;;;;;;3.30;1.67;;;24.30;60.50;;;;;;2311018;54;20965;-74
2022/06/30 07:10:39;;;;;;;3.65;1.95;;;24.40;60.40;;;;;;2314519;54;20973;-74
2022/06/30 07:13:54;;;;;;;4.57;2.08;;;24.40;60.20;;;;;;2316839;54;20975;-74
2022/06/30 07:16:20;;;;;;;3.97;2.50;;;24.60;61.10;;;;;;2332273;54;21446;-76
2022/06/30 07:18:47;;;;;;;3.30;2.33;;;24.60;60.00;;;;;;2310320;54;21355;-75
2022/06/30 07:21:14;;;;;;;3.85;2.08;;;24.70;59.90;;;;;;2310902;54;21260;-75
2022/06/30 07:23:42;;;;;;;3.33;1.95;;;24.80;59.90;;;;;;2311317;54;20944;-75
2022/06/30 07:26:11;;;;;;;4.18;2.42;;;24.90;59.90;;;;;;2316967;54;20910;-74
2022/06/30 07:28:40;;;;;;;2.80;1.92;;;25.00;59.80;;;;;;2316728;54;21338;-74
2022/06/30 07:31:22;;;;;;;3.67;1.67;;;25.00;59.70;;;;;;2315840;54;20921;-74
2022/06/30 07:33:48;;;;;;;3.72;1.77;;;25.10;59.60;;;;;;2321071;54;20951;-74
2022/06/30 07:36:45;;;;;;;3.28;1.80;;;25.20;59.50;;;;;;2308638;54;20980;-74
2022/06/30 07:39:12;;;;;;;4.57;1.85;;;25.20;59.30;;;;;;2348395;53;21441;-75
2022/06/30 07:41:39;;;;;;;2.90;1.55;;;25.30;59.10;;;;;;2311329;54;20988;-73
2022/06/30 07:44:05;;;;;;;3.10;1.90;;;25.40;59.00;;;;;;2312826;54;20941;-74
2022/06/30 07:46:31;;;;;;;3.00;1.58;;;25.40;58.90;;;;;;2315521;54;21023;-75
2022/06/30 07:48:59;;;;;;;4.53;1.90;;;25.50;58.80;;;;;;2308341;54;20988;-74
2022/06/30 07:51:26;;;;;;;3.58;1.73;;;25.60;58.70;;;;;;2311611;54;20909;-75
2022/06/30 07:53:52;;;;;;;2.72;1.62;;;25.60;58.50;;;;;;2310957;54;21441;-74
2022/06/30 07:56:19;;;;;;;3.35;1.90;;;25.70;58.50;;;;;;2310852;54;21358;-74
2022/06/30 07:58:46;;;;;;;2.60;1.52;;;25.70;58.40;;;;;;2311253;54;20968;-75
2022/06/30 08:01:17;;;;;;;3.72;1.73;;;25.80;58.40;;;;;;2311554;54;21000;-74
2022/06/30 08:03:46;;;;;;;3.90;1.73;;;25.90;58.60;;;;;;2311430;54;20945;-75
2022/06/30 08:06:23;;;;;;;3.28;1.60;;;25.90;58.50;;;;;;2311293;54;21012;-74
2022/06/30 08:08:55;;;;;;;3.60;2.10;;;26.00;58.50;;;;;;2316811;54;20949;-74
2022/06/30 08:11:22;;;;;;;2.70;1.58;;;26.00;58.30;;;;;;2317306;54;21037;-74
2022/06/30 08:13:49;;;;;;;3.28;2.10;;;26.10;58.40;;;;;;2314336;54;20989;-74
2022/06/30 08:16:18;;;;;;;4.28;2.00;;;26.20;58.30;;;;;;2311251;54;20913;-76
2022/06/30 08:18:44;;;;;;;3.37;1.87;;;26.30;58.40;;;;;;2314766;54;21842;-73
2022/06/30 08:21:12;;;;;;;5.22;2.15;;;26.30;58.40;;;;;;2313489;54;21652;-74
2022/06/30 08:23:43;;;;;;;3.28;1.87;;;26.40;58.30;;;;;;2309669;54;20977;-73
2022/06/30 08:26:18;;;;;;;4.17;1.57;;;26.50;58.20;;;;;;2319047;54;21456;-76
2022/06/30 08:28:45;;;;;;;3.20;1.70;;;26.60;58.10;;;;;;2311622;54;21028;-75
2022/06/30 08:31:15;;;;;;;2.70;1.65;;;26.60;58.10;;;;;;2323072;53;21489;-74
2022/06/30 08:33:56;;;;;;;3.00;1.80;;;26.70;58.20;;;;;;2316960;54;20962;-74
2022/06/30 08:36:23;;;;;;;3.50;1.73;;;26.80;58.00;;;;;;2316861;54;20977;-74
2022/06/30 08:38:49;;;;;;;2.67;1.67;;;26.80;58.00;;;;;;2316720;54;21832;-76
2022/06/30 08:44:02;;;;;;;3.35;1.98;;;27.00;58.00;;;;;;2444683;53;20933;-74
2022/06/30 08:46:28;;;;;;;3.45;1.80;;;27.00;57.90;;;;;;2359253;53;20913;-74
2022/06/30 08:48:55;;;;;;;3.17;1.70;;;27.10;57.80;;;;;;2412494;53;21762;-74
2022/06/30 08:51:22;;;;;;;2.97;2.00;;;27.10;57.70;;;;;;2320388;54;21031;-74
2022/06/30 08:53:56;;;;;;;2.67;1.80;;;27.20;57.80;;;;;;2315273;54;20970;-74
2022/06/30 08:56:22;;;;;;;3.95;2.00;;;27.30;57.60;;;;;;2365213;53;20945;-75
2022/06/30 08:58:49;;;;;;;3.62;1.90;;;27.40;57.70;;;;;;2314949;54;21004;-72
2022/06/30 09:01:16;;;;;;;5.20;1.75;;;27.40;57.70;;;;;;2315697;54;21026;-72
2022/06/30 09:03:44;;;;;;;4.80;2.12;;;27.50;57.70;;;;;;2316655;54;20991;-72
2022/06/30 09:06:10;;;;;;;2.53;1.60;;;27.60;57.70;;;;;;2320887;54;20937;-73
2022/06/30 09:08:40;;;;;;;2.97;1.90;;;27.70;57.70;;;;;;2443192;53;20995;-72
2022/06/30 09:11:06;;;;;;;2.80;1.73;;;27.70;57.80;;;;;;2301487;54;21867;-72
2022/06/30 09:13:40;;;;;;;3.37;1.87;;;27.80;57.70;;;;;;2312325;54;21020;-72
2022/06/30 09:16:25;;;;;;;4.15;1.90;;;27.90;57.20;;;;;;2311984;54;20996;-73
2022/06/30 09:18:57;;;;;;;3.25;1.67;;;28.00;57.10;;;;;;2330677;54;21489;-73
2022/06/30 09:21:36;;;;;;;2.67;1.87;;;28.10;56.90;;;;;;2311522;54;21075;-74
2022/06/30 09:24:02;;;;;;;3.55;1.92;;;28.20;56.80;;;;;;2311040;54;20941;-71
2022/06/30 09:26:41;;;;;;;2.70;1.77;;;28.20;56.80;;;;;;2363799;53;20961;-73
2022/06/30 09:29:08;;;;;;;3.47;1.85;;;28.30;56.50;;;;;;2290585;55;21617;-72
2022/06/30 09:32:01;;;;;;;2.72;1.73;;;28.40;56.50;;;;;;2293329;54;21041;-72
2022/06/30 09:34:27;;;;;;;2.80;1.80;;;28.50;56.30;;;;;;2295896;54;21062;-73
2022/06/30 09:36:53;;;;;;;2.78;1.83;;;28.50;56.20;;;;;;2303572;54;20989;-74
2022/06/30 09:39:21;;;;;;;3.10;1.98;;;28.60;56.30;;;;;;2299400;54;20942;-74
2022/06/30 09:41:49;;;;;;;3.00;1.85;;;28.70;56.40;;;;;;2289998;54;21379;-72
2022/06/30 09:44:22;;;;;;;3.30;2.00;;;28.70;56.20;;;;;;2295071;54;21981;-72
2022/06/30 09:47:06;;;;;;;3.10;1.90;;;28.80;55.80;;;;;;2303100;54;21012;-72
2022/06/30 09:49:45;;;;;;;3.15;1.73;;;28.90;55.80;;;;;;2308627;54;21410;-72
2022/06/30 09:52:53;;;;;;;2.47;1.50;;;29.00;55.90;;;;;;2310858;54;20989;-73
2022/06/30 09:55:20;;;;;;;2.70;1.55;;;29.10;55.60;;;;;;2401510;54;21403;-72
2022/06/30 09:57:47;;;;;;;2.67;1.70;;;29.10;55.80;;;;;;2309627;54;20933;-72
2022/06/30 10:00:15;;;;;;;3.67;1.73;;;29.20;55.90;;;;;;2308955;54;20981;-73
2022/06/30 10:02:46;;;;;;;2.92;1.60;;;29.30;55.60;;;;;;2310931;54;21367;-72
2022/06/30 10:05:14;;;;;;;2.45;1.55;;;29.30;55.30;;;;;;2311958;54;21101;-73
2022/06/30 10:07:43;;;;;;;2.50;1.55;;;29.40;55.10;;;;;;2311355;54;20941;-73
2022/06/30 10:10:14;;;;;;;3.22;1.70;;;29.50;55.10;;;;;;2311246;54;20969;-73
2022/06/30 10:12:50;;;;;;;3.10;1.70;;;29.50;54.80;;;;;;2311449;54;21088;-73
2022/06/30 10:15:16;;;;;;;3.03;1.55;;;29.60;54.40;;;;;;2308975;54;21024;-71
2022/06/30 10:17:55;;;;;;;2.72;1.40;;;29.70;54.50;;;;;;2318865;54;21002;-73
2022/06/30 10:20:22;;;;;;;3.78;1.60;;;29.70;54.10;;;;;;2314357;54;20953;-73
2022/06/30 10:22:48;;;;;;;2.87;1.60;;;29.80;54.10;;;;;;2408128;54;20981;-74
2022/06/30 10:25:16;;;;;;;2.40;1.40;;;29.80;54.20;;;;;;2311179;54;20924;-72
2022/06/30 10:27:44;;;;;;;3.75;1.50;;;29.90;54.10;;;;;;2310926;54;21020;-72
2022/06/30 10:30:15;;;;;;;3.25;1.40;;;29.90;53.80;;;;;;2322221;54;20970;-73
2022/06/30 10:33:19;;;;;;;3.05;1.42;;;30.00;53.40;;;;;;2311329;54;21044;-71
2022/06/30 10:35:48;;;;;;;2.28;1.40;;;30.10;52.60;;;;;;2321394;54;20917;-73
2022/06/30 10:38:39;;;;;;;2.12;1.20;;;30.10;53.00;;;;;;2312170;54;20921;-72
2022/06/30 10:41:17;;;;;;;2.40;1.20;;;30.20;52.30;;;;;;2311013;54;20933;-71
2022/06/30 10:44:44;;;;;;;3.67;1.12;;;30.30;51.70;;;;;;2310510;54;20937;-73
2022/06/30 10:47:16;;;;;;;3.83;0.95;;;30.30;51.10;;;;;;2311731;54;21009;-73
2022/06/30 10:49:53;;;;;;;1.95;0.98;;;30.40;51.40;;;;;;2311060;54;20932;-72
2022/06/30 10:52:21;;;;;;;2.10;0.98;;;30.40;50.20;;;;;;2310799;54;20940;-74
2022/06/30 10:54:47;;;;;;;2.45;0.70;;;30.50;50.60;;;;;;2310510;54;20886;-73
2022/06/30 10:57:18;;;;;;;1.70;0.77;;;30.50;50.50;;;;;;2310449;54;21735;-73
2022/06/30 10:59:48;;;;;;;3.60;1.15;;;30.60;50.30;;;;;;2318420;54;21006;-72
2022/06/30 11:02:26;;;;;;;5.20;1.10;;;30.60;49.80;;;;;;2300472;54;20981;-73
2022/06/30 11:05:23;;;;;;;2.28;1.10;;;30.70;49.20;;;;;;2312556;54;21722;-72
2022/06/30 11:07:50;;;;;;;2.10;1.00;;;30.70;48.60;;;;;;2365123;54;21470;-73
2022/06/30 11:10:17;;;;;;;2.03;0.85;;;30.70;49.10;;;;;;2310801;54;20953;-73
2022/06/30 11:13:05;;;;;;;1.80;0.90;;;30.80;48.90;;;;;;2404516;54;21750;-73
2022/06/30 11:15:53;;;;;;;1.95;1.10;;;30.80;48.00;;;;;;2312221;54;21842;-72
2022/06/30 11:18:20;;;;;;;2.55;1.00;;;30.90;47.80;;;;;;2369093;54;21665;-73
2022/06/30 11:20:49;;;;;;;1.90;1.00;;;30.90;48.70;;;;;;2318095;54;21041;-74
2022/06/30 11:23:16;;;;;;;1.55;0.70;;;31.00;48.60;;;;;;2311137;54;21402;-72
2022/06/30 11:28:27;;;;;;;2.40;1.20;;;31.00;48.50;;;;;;2311398;54;21389;-73
2022/06/30 11:30:53;;;;;;;2.28;1.00;;;31.10;49.00;;;;;;2310586;54;20953;-71
2022/06/30 11:33:20;;;;;;;2.28;1.00;;;31.10;48.00;;;;;;2309692;54;21012;-73
2022/06/30 11:35:46;;;;;;;2.65;1.10;;;31.20;47.80;;;;;;2310269;54;20901;-72
2022/06/30 11:38:12;;;;;;;2.42;0.95;;;31.30;47.60;;;;;;2310631;54;20989;-72
2022/06/30 11:40:39;;;;;;;2.60;0.80;;;31.30;47.60;;;;;;2348601;54;21008;-73
2022/06/30 11:43:22;;;;;;;2.20;1.00;;;31.40;47.90;;;;;;2315290;54;21009;-72
2022/06/30 11:46:02;;;;;;;3.45;1.12;;;31.50;47.00;;;;;;2308942;54;21005;-72
2022/06/30 11:48:45;;;;;;;2.83;1.10;;;31.50;46.50;;;;;;2311435;54;20965;-73
2022/06/30 11:51:12;;;;;;;2.72;1.25;;;31.60;46.50;;;;;;2315663;54;20953;-73
2022/06/30 11:53:39;;;;;;;2.87;0.98;;;31.60;46.90;;;;;;2311579;54;20965;-74
2022/06/30 11:56:06;;;;;;;2.20;1.10;;;31.60;47.20;;;;;;2311467;54;20915;-72
2022/06/30 12:02:07;;;;;;;2.47;1.10;;;31.70;46.60;;;;;;2313443;54;20929;-72
2022/06/30 12:04:34;;;;;;;1.40;0.90;;;31.70;47.10;;;;;;2299398;54;21026;-74
2022/06/30 12:07:03;;;;;;;2.70;1.10;;;31.70;46.90;;;;;;2308275;54;20981;-74
2022/06/30 12:09:31;;;;;;;1.58;0.90;;;31.80;46.60;;;;;;2327874;53;20948;-77
2022/06/30 12:11:59;;;;;;;2.60;1.20;;;31.90;46.80;;;;;;2315745;54;21013;-74
2022/06/30 12:14:26;;;;;;;1.80;1.00;;;31.90;46.60;;;;;;2311381;54;20989;-72
2022/06/30 12:16:55;;;;;;;2.95;1.05;;;31.90;46.50;;;;;;2309862;54;21307;-72
2022/06/30 12:19:23;;;;;;;2.22;1.10;;;31.90;46.30;;;;;;2317270;54;21018;-71
2022/06/30 12:21:52;;;;;;;1.62;0.90;;;32.00;46.10;;;;;;2386102;54;21031;-73
2022/06/30 12:24:55;;;;;;;2.50;0.90;;;32.10;45.80;;;;;;2317330;54;21448;-72
2022/06/30 12:30:12;;;;;;;2.22;1.00;;;32.10;45.70;;;;;;2318373;54;20942;-72
2022/06/30 12:32:38;;;;;;;1.58;0.73;;;32.20;45.40;;;;;;2317730;54;21047;-71
2022/06/30 12:35:11;;;;;;;2.12;0.93;;;32.30;45.90;;;;;;2301811;54;20960;-70
2022/06/30 12:37:42;;;;;;;2.00;1.20;;;32.40;45.80;;;;;;2373513;54;20913;-72
2022/06/30 12:40:13;;;;;;;2.37;0.98;;;32.40;45.60;;;;;;2319027;54;21902;-71
2022/06/30 12:42:55;;;;;;;2.05;0.90;;;32.40;45.40;;;;;;2317429;54;20966;-71
2022/06/30 12:48:54;;;;;;;2.17;0.95;;;32.50;45.30;;;;;;2312327;54;21425;-72
2022/06/30 12:53:22;;;;;;;2.90;0.90;;;32.60;45.90;;;;;;2317389;54;21039;-71
2022/06/30 12:55:58;;;;;;;5.68;1.00;;;32.60;45.30;;;;;;2310460;54;21899;-74
2022/06/30 12:58:24;;;;;;;2.28;1.05;;;32.70;45.00;;;;;;2313140;54;20988;-71
2022/06/30 13:00:56;;;;;;;1.90;1.10;;;32.70;45.20;;;;;;2316319;54;20941;-72
2022/06/30 13:03:24;;;;;;;2.15;1.10;;;32.70;45.20;;;;;;2317151;54;21078;-71
2022/06/30 13:05:50;;;;;;;2.00;1.08;;;32.80;45.10;;;;;;2297176;54;20995;-71
2022/06/30 13:08:17;;;;;;;2.20;1.20;;;32.80;45.10;;;;;;2357062;53;20957;-71
2022/06/30 13:13:29;;;;;;;2.00;1.00;;;32.90;45.00;;;;;;2316739;54;21146;-72
2022/06/30 13:15:55;;;;;;;2.75;1.30;;;32.90;45.00;;;;;;2311257;54;21103;-71
2022/06/30 13:18:22;;;;;;;2.30;1.10;;;33.00;45.20;;;;;;2310309;54;21358;-71
2022/06/30 13:20:48;;;;;;;1.95;1.05;;;33.00;45.20;;;;;;2310692;54;20921;-71
2022/06/30 13:23:14;;;;;;;2.80;1.00;;;33.10;45.30;;;;;;2308945;54;20961;-71
2022/06/30 13:25:41;;;;;;;3.37;1.00;;;33.10;45.00;;;;;;2322696;54;20925;-71
2022/06/30 13:28:07;;;;;;;2.58;1.20;;;33.20;45.00;;;;;;2310406;54;21040;-72
2022/06/30 13:30:36;;;;;;;2.33;1.23;;;33.20;45.30;;;;;;2311049;54;21025;-71
2022/06/30 13:33:03;;;;;;;2.20;1.10;;;33.30;44.70;;;;;;2315402;54;21333;-73
2022/06/30 13:35:29;;;;;;;2.05;1.00;;;33.40;44.50;;;;;;2312620;54;21132;-71
2022/06/30 13:37:55;;;;;;;3.05;1.20;;;33.40;44.40;;;;;;2309592;54;20981;-71
2022/06/30 13:40:22;;;;;;;2.33;1.33;;;33.50;43.90;;;;;;2310782;54;21017;-71
2022/06/30 13:42:51;;;;;;;2.22;1.10;;;33.50;43.60;;;;;;2310727;54;20993;-73
2022/06/30 13:45:17;;;;;;;2.12;0.98;;;33.60;43.30;;;;;;2315157;54;20983;-74